Time;durP1;ratioP1;P1;durP2;ratioP2;P2;SDS_P1;SDS_P2;PMS_P1;PMS_P2;Temp;Humidity;BMP_temperature;BMP_pressure;BME280_temperature;BME280_humidity;BME280_pressure;Samples;Min_cycle;Max_cycle;Signal;HPM_P1;HPM_P2
2023/03/21 00:02:09;;;;;;;0.45;0.43;;;;;;;14.45;51.84;99893.28;5341092;26;33683;-81
2023/03/21 00:04:37;;;;;;;2.65;1.17;;;;;;;14.44;51.91;99891.59;5304982;26;33816;-81
2023/03/21 00:07:19;;;;;;;0.70;0.70;;;;;;;14.44;52.02;99891.59;5306347;26;32441;-81
2023/03/21 00:09:47;;;;;;;6.35;1.33;;;;;;;14.67;51.27;99892.06;5313594;26;32842;-80
2023/03/21 00:12:19;;;;;;;1.12;0.95;;;;;;;14.50;51.71;99885.94;5340774;26;33591;-80
2023/03/21 00:14:47;;;;;;;1.37;0.77;;;;;;;14.42;51.87;99888.16;5322089;26;34341;-80
2023/03/21 00:17:15;;;;;;;2.00;1.00;;;;;;;14.67;51.30;99886.75;5322211;26;32461;-81
2023/03/21 00:19:45;;;;;;;1.25;0.55;;;;;;;14.50;51.80;99890.41;5322105;26;33645;-81
2023/03/21 00:22:13;;;;;;;2.05;0.88;;;;;;;14.41;52.02;99883.78;5322446;26;32531;-82
2023/03/21 00:24:41;;;;;;;0.57;0.57;;;;;;;14.22;52.42;99880.47;5305138;26;33095;-81
2023/03/21 00:27:08;;;;;;;0.88;0.88;;;;;;;14.47;51.80;99883.41;5305625;26;32961;-81
2023/03/21 00:29:56;;;;;;;1.02;0.80;;;;;;;14.52;51.66;99885.84;5327253;26;33953;-81
2023/03/21 00:32:24;;;;;;;2.85;1.20;;;;;;;14.52;51.62;99884.03;5286899;26;33284;-81
2023/03/21 00:34:52;;;;;;;0.55;0.55;;;;;;;14.52;51.61;99883.19;5305302;26;33919;-81
2023/03/21 00:37:39;;;;;;;0.70;0.70;;;;;;;14.69;51.12;99879.53;5323225;26;32823;-81
2023/03/21 00:40:11;;;;;;;0.50;0.50;;;;;;;14.68;51.16;99873.38;5324258;26;33962;-81
2023/03/21 00:42:52;;;;;;;0.80;0.80;;;;;;;14.45;51.72;99873.84;5325605;26;33814;-81
2023/03/21 00:45:27;;;;;;;0.37;0.37;;;;;;;14.54;51.48;99870.69;5324021;26;33665;-81
2023/03/21 00:47:57;;;;;;;0.40;0.40;;;;;;;14.15;52.61;99869.38;5304138;26;32249;-81
2023/03/21 00:50:26;;;;;;;0.30;0.30;;;;;;;14.09;52.80;99870.56;5305804;26;33157;-81
2023/03/21 00:52:54;;;;;;;0.68;0.25;;;;;;;14.28;52.22;99859.72;5323557;26;32828;-81
2023/03/21 00:55:24;;;;;;;0.75;0.75;;;;;;;14.06;52.77;99860.12;5324087;26;34375;-81
2023/03/21 00:57:53;;;;;;;1.08;0.40;;;;;;;14.29;52.22;99866.78;5323839;26;32960;-81
2023/03/21 01:00:31;;;;;;;0.75;0.73;;;;;;;14.00;52.95;99855.16;5325255;26;33874;-80
2023/03/21 01:03:06;;;;;;;1.20;0.62;;;;;;;13.87;53.45;99859.47;5287327;26;32814;-81
2023/03/21 01:06:04;;;;;;;1.23;1.12;;;;;;;13.99;52.94;99857.91;5308637;26;32136;-81
2023/03/21 01:08:37;;;;;;;2.97;0.77;;;;;;;14.07;52.65;99851.22;5307363;26;32444;-81
2023/03/21 01:11:23;;;;;;;0.35;0.35;;;;;;;14.16;52.34;99854.28;5325927;26;33854;-81
2023/03/21 01:13:53;;;;;;;0.98;0.60;;;;;;;14.07;52.62;99858.31;5323910;26;34686;-81
2023/03/21 01:16:31;;;;;;;0.08;0.08;;;;;;;13.99;52.69;99858.75;5325395;26;34002;-81
2023/03/21 01:19:00;;;;;;;0.37;0.37;;;;;;;14.05;52.58;99854.88;5305603;26;33551;-81
2023/03/21 01:21:32;;;;;;;;;;;;;;;13.91;52.99;99855.69;5324465;26;33753;-81
2023/03/21 01:24:00;;;;;;;0.37;0.30;;;;;;;14.09;52.40;99854.63;5317235;27;33814;-81
2023/03/21 01:26:28;;;;;;;0.95;0.47;;;;;;;14.07;52.37;99856.53;5302423;26;33135;-81
2023/03/21 01:28:56;;;;;;;0.35;0.35;;;;;;;14.20;51.98;99856.69;5323441;26;33126;-81
2023/03/21 01:31:24;;;;;;;0.30;0.30;;;;;;;14.45;51.08;99850.78;5323267;26;32844;-81
2023/03/21 01:33:52;;;;;;;0.40;0.40;;;;;;;14.40;51.24;99852.88;5304623;26;33547;-81
2023/03/21 01:36:22;;;;;;;0.70;0.70;;;;;;;14.29;51.44;99855.25;5323395;26;33616;-81
2023/03/21 01:38:52;;;;;;;0.30;0.30;;;;;;;14.17;51.74;99850.69;5305198;26;32301;-81
2023/03/21 01:41:29;;;;;;;0.50;0.50;;;;;;;14.00;52.04;99855.16;5305192;26;32708;-81
2023/03/21 01:44:17;;;;;;;0.60;0.57;;;;;;;13.99;52.18;99853.44;5326127;26;34361;-80
2023/03/21 01:46:51;;;;;;;1.30;0.95;;;;;;;13.78;52.66;99850.22;5305703;26;33679;-80
2023/03/21 01:49:44;;;;;;;1.83;1.02;;;;;;;13.72;53.01;99862.94;5323531;26;32819;-80
2023/03/21 01:52:22;;;;;;;0.30;0.30;;;;;;;13.68;53.00;99870.25;5303352;26;32715;-80
2023/03/21 01:55:10;;;;;;;1.35;1.10;;;;;;;13.69;53.25;99865.78;5291625;26;33880;-80
2023/03/21 01:57:45;;;;;;;1.73;0.55;;;;;;;13.86;52.61;99859.53;5323887;26;33759;-80
2023/03/21 02:00:31;;;;;;;0.20;0.20;;;;;;;13.83;52.79;99852.59;5326314;26;33374;-80
2023/03/21 02:03:02;;;;;;;0.50;0.50;;;;;;;13.78;52.73;99863.47;5323472;26;33204;-80
2023/03/21 02:05:48;;;;;;;;;;;;;;;13.85;52.64;99856.00;5325924;26;33744;-80
2023/03/21 02:08:16;;;;;;;1.52;1.08;;;;;;;14.05;51.99;99861.06;5323873;26;34614;-80
2023/03/21 02:10:46;;;;;;;3.20;1.52;;;;;;;13.89;52.56;99860.22;5341633;26;34151;-80
2023/03/21 02:13:20;;;;;;;0.17;0.17;;;;;;;13.86;52.58;99868.34;5307660;26;34017;-80
2023/03/21 02:16:03;;;;;;;0.40;0.40;;;;;;;13.79;52.95;99859.03;5322784;26;34155;-80
2023/03/21 02:18:55;;;;;;;7.97;0.90;;;;;;;13.80;52.95;99863.37;5305638;26;32597;-80
2023/03/21 02:21:48;;;;;;;0.30;0.30;;;;;;;13.85;52.83;99866.63;5304541;26;33021;-80
2023/03/21 02:24:37;;;;;;;2.28;1.40;;;;;;;13.78;52.96;99859.97;5323086;26;33303;-81
2023/03/21 02:27:17;;;;;;;1.02;0.68;;;;;;;13.74;53.08;99858.44;5305222;26;34221;-81
2023/03/21 02:30:03;;;;;;;0.62;0.62;;;;;;;13.96;52.64;99863.41;5294657;26;33062;-81
2023/03/21 02:32:36;;;;;;;3.03;0.57;;;;;;;13.92;52.61;99862.72;5323150;26;33041;-81
2023/03/21 02:35:24;;;;;;;0.52;0.40;;;;;;;13.86;52.89;99856.87;5287168;26;34113;-81
2023/03/21 02:38:02;;;;;;;0.85;0.85;;;;;;;13.71;53.12;99854.13;5304181;26;34252;-81
2023/03/21 02:40:36;;;;;;;0.65;0.65;;;;;;;13.74;53.21;99861.94;5287077;26;34092;-82
2023/03/21 02:43:23;;;;;;;1.52;1.35;;;;;;;13.80;53.04;99860.72;5287287;26;32136;-81
2023/03/21 02:45:55;;;;;;;1.20;1.12;;;;;;;13.75;53.20;99861.00;5315212;26;34215;-81
2023/03/21 02:48:26;;;;;;;0.20;0.20;;;;;;;13.70;53.49;99856.87;5307250;26;32586;-81
2023/03/21 02:51:15;;;;;;;0.65;0.40;;;;;;;13.82;53.14;99856.22;5292077;26;32804;-81
2023/03/21 02:53:47;;;;;;;0.70;0.70;;;;;;;13.95;52.79;99857.22;5323346;26;33840;-82
2023/03/21 02:56:26;;;;;;;0.37;0.37;;;;;;;13.95;52.70;99857.22;5308141;26;34757;-82
2023/03/21 02:58:54;;;;;;;1.65;1.02;;;;;;;13.81;53.04;99859.78;5304961;26;32639;-82
2023/03/21 03:01:24;;;;;;;0.50;0.50;;;;;;;13.68;53.61;99858.78;5304430;26;33195;-82
2023/03/21 03:03:52;;;;;;;1.75;1.65;;;;;;;13.46;54.20;99859.09;5305479;26;32051;-82
2023/03/21 03:06:25;;;;;;;0.40;0.40;;;;;;;13.69;53.40;99861.34;5287028;26;33554;-82
2023/03/21 03:08:59;;;;;;;0.50;0.50;;;;;;;13.63;53.73;99866.13;5287606;26;33179;-82
2023/03/21 03:11:38;;;;;;;0.40;0.40;;;;;;;13.67;53.43;99870.31;5285938;26;34865;-82
2023/03/21 03:14:39;;;;;;;3.17;1.00;;;;;;;13.61;53.88;99868.84;5304798;26;32309;-82
2023/03/21 03:17:38;;;;;;;0.00;0.00;;;;;;;13.79;53.12;99867.84;5307538;26;32983;-82
2023/03/21 03:20:18;;;;;;;1.17;0.68;;;;;;;13.91;52.83;99865.44;5304831;26;32757;-82
2023/03/21 03:22:56;;;;;;;2.28;1.23;;;;;;;13.87;52.72;99870.06;5342702;26;34686;-82
2023/03/21 03:25:43;;;;;;;1.42;1.05;;;;;;;13.83;52.81;99864.06;5304395;26;32288;-82
2023/03/21 03:28:13;;;;;;;1.20;1.10;;;;;;;13.95;52.46;99865.16;5304552;26;33288;-83
2023/03/21 03:30:43;;;;;;;0.82;0.82;;;;;;;13.78;52.84;99866.13;5323086;26;33672;-82
2023/03/21 03:33:33;;;;;;;0.90;0.82;;;;;;;13.79;52.77;99861.69;5326304;26;33854;-82
2023/03/21 03:36:02;;;;;;;2.55;1.15;;;;;;;13.56;53.31;99861.16;5323446;26;33203;-82
2023/03/21 03:38:36;;;;;;;1.77;1.40;;;;;;;13.78;52.63;99865.28;5305107;26;33011;-82
2023/03/21 03:41:17;;;;;;;4.18;0.75;;;;;;;13.61;52.91;99868.84;5305294;26;34165;-82
2023/03/21 03:43:50;;;;;;;0.17;0.17;;;;;;;13.62;53.10;99867.91;5324085;26;34175;-82
2023/03/21 03:46:47;;;;;;;0.30;0.30;;;;;;;13.51;53.31;99868.50;5304647;26;33076;-82
2023/03/21 03:49:24;;;;;;;0.37;0.37;;;;;;;13.65;52.99;99869.56;5304775;26;33259;-81
2023/03/21 03:52:03;;;;;;;0.70;0.70;;;;;;;13.64;53.20;99874.00;5304862;26;33324;-81
2023/03/21 03:54:37;;;;;;;0.22;0.22;;;;;;;13.55;53.56;99867.41;5305527;26;33857;-83
2023/03/21 03:57:06;;;;;;;0.60;0.60;;;;;;;13.43;53.94;99870.72;5323381;26;33760;-82
2023/03/21 03:59:41;;;;;;;0.40;0.40;;;;;;;13.48;53.86;99873.13;5305344;26;32894;-82
2023/03/21 04:02:10;;;;;;;0.73;0.73;;;;;;;13.54;53.62;99872.81;5305513;26;33090;-82
2023/03/21 04:04:42;;;;;;;1.45;0.85;;;;;;;13.47;53.80;99872.25;5305957;26;34227;-82
2023/03/21 04:07:18;;;;;;;0.45;0.43;;;;;;;13.59;53.40;99873.41;5305148;26;32788;-82
2023/03/21 04:09:47;;;;;;;0.73;0.73;;;;;;;13.43;53.77;99865.41;5306344;26;34467;-83
2023/03/21 04:12:15;;;;;;;0.32;0.32;;;;;;;13.56;53.31;99863.81;5322908;26;33166;-82
2023/03/21 04:14:50;;;;;;;0.80;0.55;;;;;;;13.38;53.92;99864.81;5342345;26;34383;-83
2023/03/21 04:17:20;;;;;;;0.20;0.20;;;;;;;13.35;54.14;99867.62;5305426;26;32992;-82
2023/03/21 04:19:50;;;;;;;1.23;1.12;;;;;;;13.42;54.04;99861.03;5305476;26;32728;-83
2023/03/21 04:22:25;;;;;;;0.98;0.75;;;;;;;13.38;54.00;99866.59;5306546;26;33394;-82
2023/03/21 04:24:54;;;;;;;0.03;0.03;;;;;;;13.30;53.85;99867.03;5287443;26;34123;-83
2023/03/21 04:27:23;;;;;;;0.55;0.37;;;;;;;13.04;54.83;99866.56;5287208;26;31976;-82
2023/03/21 04:29:54;;;;;;;0.10;0.10;;;;;;;13.20;54.66;99866.63;5324266;26;33511;-82
2023/03/21 04:32:23;;;;;;;0.10;0.10;;;;;;;13.08;55.31;99860.19;5305795;26;33017;-82
2023/03/21 04:34:52;;;;;;;0.10;0.10;;;;;;;13.30;54.40;99865.22;5323641;26;33730;-82
2023/03/21 04:37:22;;;;;;;0.80;0.80;;;;;;;13.32;54.00;99865.13;5323924;26;34617;-82
2023/03/21 04:39:51;;;;;;;0.10;0.10;;;;;;;13.14;54.87;99859.00;5305332;26;32505;-82
2023/03/21 04:42:20;;;;;;;3.58;1.65;;;;;;;13.20;54.55;99858.69;5287758;26;33149;-82
2023/03/21 04:44:49;;;;;;;0.70;0.50;;;;;;;13.14;54.98;99852.84;5305140;26;33069;-82
2023/03/21 04:47:19;;;;;;;0.15;0.15;;;;;;;13.19;54.99;99864.03;5305316;26;32833;-82
2023/03/21 04:49:47;;;;;;;1.98;1.27;;;;;;;13.23;54.78;99865.63;5305514;26;33704;-82
2023/03/21 04:52:16;;;;;;;0.25;0.25;;;;;;;13.41;54.64;99862.00;5305696;26;33879;-82
2023/03/21 04:54:45;;;;;;;0.62;0.62;;;;;;;13.26;55.04;99868.12;5323701;26;32892;-82
2023/03/21 04:57:16;;;;;;;0.30;0.30;;;;;;;13.09;55.64;99871.63;5323727;26;33174;-82
2023/03/21 04:59:45;;;;;;;0.35;0.35;;;;;;;13.29;55.19;99858.22;5287203;26;33477;-81
2023/03/21 05:02:14;;;;;;;0.43;0.43;;;;;;;13.29;55.10;99860.00;5305084;26;33867;-81
2023/03/21 05:04:43;;;;;;;0.20;0.20;;;;;;;13.45;54.77;99863.53;5305078;26;33126;-82
2023/03/21 05:07:11;;;;;;;0.65;0.65;;;;;;;13.48;54.67;99867.81;5322703;26;33389;-81
2023/03/21 05:09:40;;;;;;;0.28;0.28;;;;;;;13.64;53.99;99867.84;5323516;26;33956;-83
2023/03/21 05:12:10;;;;;;;0.20;0.20;;;;;;;13.69;53.84;99866.66;5308530;26;33693;-81
2023/03/21 05:14:40;;;;;;;0.30;0.30;;;;;;;13.63;53.97;99877.59;5324258;26;34577;-81
2023/03/21 05:17:14;;;;;;;0.43;0.43;;;;;;;13.62;54.03;99881.16;5305273;26;32348;-81
2023/03/21 05:19:51;;;;;;;0.30;0.30;;;;;;;13.71;53.81;99874.50;5307500;26;33854;-82
2023/03/21 05:22:23;;;;;;;0.73;0.73;;;;;;;13.44;54.69;99876.91;5341906;26;33945;-81
2023/03/21 05:24:54;;;;;;;0.43;0.43;;;;;;;13.49;54.71;99877.50;5305228;26;32924;-82
2023/03/21 05:30:09;;;;;;;0.47;0.47;;;;;;;13.67;54.11;99878.28;5324600;26;33755;-81
2023/03/21 05:32:42;;;;;;;0.08;0.08;;;;;;;13.50;54.78;99888.03;5323598;26;34051;-80
2023/03/21 05:35:25;;;;;;;0.57;0.43;;;;;;;13.61;54.60;99883.91;5325724;26;35604;-81
2023/03/21 05:37:55;;;;;;;1.08;0.62;;;;;;;13.97;53.69;99876.56;5287498;26;32769;-81
2023/03/21 05:40:27;;;;;;;2.33;1.45;;;;;;;14.11;53.31;99874.94;5306895;26;34094;-80
2023/03/21 05:42:57;;;;;;;5.50;0.37;;;;;;;14.20;53.15;99877.06;5323657;26;34065;-80
2023/03/21 05:45:29;;;;;;;1.20;0.50;;;;;;;13.90;54.09;99880.50;5323188;26;32284;-80
2023/03/21 05:48:01;;;;;;;0.95;0.95;;;;;;;13.92;53.89;99883.94;5287905;26;32723;-80
2023/03/21 05:50:32;;;;;;;1.20;1.10;;;;;;;13.78;54.40;99891.81;5323556;26;33374;-80
2023/03/21 05:53:03;;;;;;;1.17;1.08;;;;;;;13.87;54.09;99901.06;5321064;26;34018;-81
2023/03/21 05:55:31;;;;;;;0.00;0.00;;;;;;;14.21;53.00;99905.34;5286956;26;32925;-81
2023/03/21 05:58:00;;;;;;;0.90;0.88;;;;;;;14.45;52.38;99903.06;5322662;26;33711;-81
2023/03/21 06:03:19;;;;;;;0.70;0.70;;;;;;;14.54;52.12;99897.25;5324088;26;33251;-80
2023/03/21 06:05:49;;;;;;;0.40;0.37;;;;;;;14.63;51.91;99902.03;5301858;26;34204;-80
2023/03/21 06:08:27;;;;;;;0.40;0.40;;;;;;;14.52;52.34;99894.66;5285333;26;33392;-80
2023/03/21 06:11:00;;;;;;;0.77;0.77;;;;;;;14.49;52.50;99900.19;5302812;26;32845;-80
2023/03/21 06:13:31;;;;;;;0.50;0.50;;;;;;;14.56;52.45;99898.00;5283952;26;34253;-81
2023/03/21 06:16:08;;;;;;;0.75;0.75;;;;;;;14.58;52.47;99899.66;5301865;26;32803;-80
2023/03/21 06:18:39;;;;;;;0.30;0.30;;;;;;;14.60;52.25;99900.41;5320951;26;33925;-82
2023/03/21 06:21:12;;;;;;;1.42;1.15;;;;;;;14.75;51.89;99905.75;5301924;26;34186;-81
2023/03/21 06:23:40;;;;;;;1.02;0.93;;;;;;;14.88;51.69;99906.75;5301668;26;33024;-81
2023/03/21 06:26:09;;;;;;;0.28;0.28;;;;;;;14.92;51.50;99897.62;5296424;27;34066;-82
2023/03/21 06:28:40;;;;;;;0.40;0.40;;;;;;;14.91;51.28;99900.38;5300822;26;32853;-79
2023/03/21 06:31:09;;;;;;;1.45;1.30;;;;;;;14.92;51.29;99900.31;5320000;26;32462;-82
2023/03/21 06:33:39;;;;;;;1.45;0.73;;;;;;;14.94;51.38;99901.06;5319998;26;34268;-82
2023/03/21 06:36:08;;;;;;;1.23;0.82;;;;;;;14.86;51.29;99903.34;5300538;26;32541;-82
2023/03/21 06:38:38;;;;;;;0.40;0.35;;;;;;;14.91;51.28;99901.25;5283637;26;33085;-79
2023/03/21 06:41:09;;;;;;;0.68;0.68;;;;;;;15.23;50.51;99903.75;5302446;26;34329;-80
2023/03/21 06:43:40;;;;;;;3.63;1.40;;;;;;;15.15;51.04;99900.72;5302630;26;33273;-80
2023/03/21 06:46:08;;;;;;;0.82;0.82;;;;;;;15.27;50.67;99894.63;5301440;26;32677;-80
2023/03/21 06:48:43;;;;;;;1.65;1.55;;;;;;;15.07;50.91;99894.06;5320414;26;32739;-80
2023/03/21 06:51:13;;;;;;;;;;;;;;;15.17;50.98;99901.47;5300647;26;32801;-80
2023/03/21 06:53:43;;;;;;;2.55;1.85;;;;;;;15.04;51.32;99902.19;5299297;26;33883;-80
2023/03/21 06:56:14;;;;;;;1.87;0.90;;;;;;;14.73;51.89;99907.66;5318668;26;32589;-80
2023/03/21 06:58:52;;;;;;;0.62;0.62;;;;;;;14.85;51.62;99912.22;5301516;26;33040;-83
2023/03/21 07:01:22;;;;;;;0.45;0.45;;;;;;;15.16;50.98;99911.25;5323055;26;33102;-81
2023/03/21 07:03:52;;;;;;;1.40;0.85;;;;;;;15.20;51.01;99917.25;5286592;26;33340;-81
2023/03/21 07:06:25;;;;;;;0.32;0.32;;;;;;;15.41;50.32;99904.44;5323079;26;33651;-81
2023/03/21 07:08:56;;;;;;;0.30;0.30;;;;;;;15.08;51.10;99914.38;5323386;26;33058;-81
2023/03/21 07:11:32;;;;;;;0.55;0.55;;;;;;;14.93;51.26;99915.28;5307458;26;36223;-81
2023/03/21 07:14:01;;;;;;;1.65;0.98;;;;;;;15.31;51.01;99917.44;5322791;26;32883;-81
2023/03/21 07:16:37;;;;;;;0.95;0.70;;;;;;;15.55;50.17;99912.41;5286683;26;33591;-81
2023/03/21 07:19:07;;;;;;;0.60;0.32;;;;;;;15.64;49.83;99911.00;5304927;26;33383;-81
2023/03/21 07:21:35;;;;;;;3.03;0.98;;;;;;;15.91;48.78;99913.75;5304962;26;32182;-80
2023/03/21 07:24:05;;;;;;;11.18;1.12;;;;;;;15.04;50.68;99920.81;5341683;26;33710;-80
2023/03/21 07:26:35;;;;;;;1.55;1.23;;;;;;;15.42;50.21;99919.44;5302600;26;33191;-79
2023/03/21 07:29:03;;;;;;;0.22;0.22;;;;;;;15.52;50.11;99928.56;5318886;26;32850;-80
2023/03/21 07:31:31;;;;;;;3.72;0.93;;;;;;;15.88;48.68;99920.09;5320026;26;33924;-80
2023/03/21 07:34:04;;;;;;;0.25;0.25;;;;;;;15.85;48.76;99915.81;5337340;26;33890;-80
2023/03/21 07:36:32;;;;;;;0.65;0.65;;;;;;;15.80;48.88;99927.72;5319908;26;34796;-80
2023/03/21 07:39:02;;;;;;;5.78;1.23;;;;;;;15.91;48.69;99927.06;5319998;26;34017;-79
2023/03/21 07:44:17;;;;;;;0.80;0.80;;;;;;;16.26;47.97;99914.12;5303556;26;33510;-80
2023/03/21 07:46:45;;;;;;;0.88;0.77;;;;;;;16.28;48.91;99910.37;5297211;27;32595;-80
2023/03/21 07:49:19;;;;;;;0.28;0.28;;;;;;;16.67;47.80;99907.88;5298061;26;33231;-80
2023/03/21 07:51:48;;;;;;;2.20;0.82;;;;;;;16.97;46.17;99897.81;5286998;26;33510;-80
2023/03/21 07:54:19;;;;;;;0.50;0.50;;;;;;;16.82;46.86;99907.72;5322783;26;33943;-80
2023/03/21 07:56:47;;;;;;;0.75;0.45;;;;;;;16.79;47.07;99901.72;5322212;26;34580;-80
2023/03/21 07:59:15;;;;;;;0.25;0.25;;;;;;;16.86;46.96;99895.03;5304145;26;33034;-79
2023/03/21 08:01:43;;;;;;;1.45;1.35;;;;;;;16.75;46.88;99910.88;5303926;26;32408;-81
2023/03/21 08:04:12;;;;;;;0.98;0.85;;;;;;;16.66;46.98;99896.31;5304025;26;33343;-81
2023/03/21 08:06:44;;;;;;;0.60;0.47;;;;;;;16.70;46.81;99896.97;5321281;26;33783;-81
2023/03/21 08:09:13;;;;;;;0.10;0.10;;;;;;;17.49;45.27;99885.31;5304618;26;34703;-81
2023/03/21 08:11:41;;;;;;;0.62;0.62;;;;;;;17.05;46.17;99902.63;5322099;26;35111;-81
2023/03/21 08:14:09;;;;;;;0.68;0.68;;;;;;;17.31;45.85;99892.78;5305066;26;33720;-80
2023/03/21 08:16:43;;;;;;;3.20;1.55;;;;;;;17.69;44.11;99889.22;5322510;26;33698;-80
2023/03/21 08:19:12;;;;;;;0.75;0.60;;;;;;;17.69;44.46;99895.41;5304432;26;32945;-80
2023/03/21 08:21:44;;;;;;;0.93;0.88;;;;;;;18.28;42.92;99886.72;5304936;26;32937;-80
2023/03/21 08:24:12;;;;;;;0.45;0.45;;;;;;;17.96;43.59;99889.94;5304311;26;34324;-80
2023/03/21 08:26:42;;;;;;;0.75;0.75;;;;;;;18.08;43.99;99898.88;5286598;26;32709;-80
2023/03/21 08:29:15;;;;;;;1.20;0.90;;;;;;;18.63;42.81;99890.28;5323658;26;33780;-80
2023/03/21 08:31:43;;;;;;;0.70;0.70;;;;;;;18.29;42.50;99896.44;5322910;26;34092;-80
2023/03/21 08:34:12;;;;;;;0.85;0.40;;;;;;;18.60;42.07;99890.50;5341104;26;34315;-80
2023/03/21 08:36:44;;;;;;;1.00;0.85;;;;;;;18.79;40.81;99897.16;5304454;26;32896;-80
2023/03/21 08:39:12;;;;;;;0.68;0.68;;;;;;;18.25;42.35;99895.81;5322628;26;34254;-80
2023/03/21 08:41:40;;;;;;;0.30;0.30;;;;;;;18.71;41.46;99888.88;5304844;26;33151;-80
2023/03/21 08:44:15;;;;;;;0.65;0.52;;;;;;;18.61;41.19;99897.56;5305942;26;33905;-80
2023/03/21 08:49:20;;;;;;;0.85;0.70;;;;;;;18.61;40.98;99892.22;5341742;26;33036;-81
2023/03/21 08:51:48;;;;;;;0.43;0.32;;;;;;;18.74;41.60;99899.34;5304997;26;33450;-80
2023/03/21 08:54:19;;;;;;;0.20;0.20;;;;;;;18.60;40.93;99895.84;5323212;26;32843;-80
2023/03/21 08:56:50;;;;;;;0.80;0.73;;;;;;;19.09;40.10;99892.16;5324124;26;33970;-80
2023/03/21 08:59:27;;;;;;;0.20;0.20;;;;;;;19.57;39.25;99885.72;5305696;26;32075;-80
2023/03/21 09:01:57;;;;;;;0.32;0.32;;;;;;;19.53;38.59;99890.47;5324081;26;33328;-80
2023/03/21 09:04:29;;;;;;;0.25;0.25;;;;;;;18.85;40.20;99900.25;5341625;26;34442;-80
2023/03/21 09:07:04;;;;;;;0.20;0.20;;;;;;;19.12;39.53;99897.25;5325282;26;34708;-80
2023/03/21 09:09:36;;;;;;;0.68;0.60;;;;;;;18.48;41.22;99901.28;5323810;26;33339;-80
2023/03/21 09:12:06;;;;;;;0.73;0.73;;;;;;;18.25;41.95;99906.50;5305387;26;33221;-80
2023/03/21 09:14:40;;;;;;;0.85;0.60;;;;;;;18.24;41.98;99902.13;5306331;26;33183;-80
2023/03/21 09:17:07;;;;;;;1.48;1.08;;;;;;;18.83;40.99;99904.00;5342152;26;33690;-80
2023/03/21 09:19:37;;;;;;;0.98;0.98;;;;;;;19.09;40.80;99908.19;5324145;26;33310;-80
2023/03/21 09:22:13;;;;;;;0.80;0.68;;;;;;;18.50;42.00;99908.19;5323867;26;33900;-81
2023/03/21 09:24:49;;;;;;;2.28;1.55;;;;;;;18.60;41.39;99900.34;5315276;26;34011;-81
2023/03/21 09:27:22;;;;;;;0.40;0.40;;;;;;;19.19;40.47;99903.84;5324214;26;33851;-81
2023/03/21 09:29:53;;;;;;;0.80;0.80;;;;;;;19.42;40.09;99899.38;5305342;26;33673;-81
2023/03/21 09:32:22;;;;;;;2.28;0.88;;;;;;;19.42;39.87;99898.50;5304747;26;33129;-81
2023/03/21 09:34:51;;;;;;;0.50;0.50;;;;;;;19.11;41.29;99898.22;5341845;26;33876;-81
2023/03/21 09:37:21;;;;;;;0.90;0.80;;;;;;;19.64;39.22;99900.34;5305219;26;33164;-81
2023/03/21 09:39:50;;;;;;;1.27;0.85;;;;;;;19.96;39.03;99889.72;5322780;26;33296;-81
2023/03/21 09:42:35;;;;;;;1.45;0.80;;;;;;;20.09;38.40;99893.13;5305954;26;33678;-81
2023/03/21 09:45:34;;;;;;;2.53;2.33;;;;;;;19.95;38.45;99890.72;5305202;26;33206;-81
2023/03/21 09:48:30;;;;;;;1.08;0.75;;;;;;;20.32;37.59;99883.19;5305951;26;32467;-81
2023/03/21 09:51:05;;;;;;;0.32;0.30;;;;;;;20.16;37.62;99885.41;5324498;26;33512;-80
2023/03/21 09:53:40;;;;;;;1.10;0.95;;;;;;;19.93;38.37;99889.97;5305700;26;33671;-80
2023/03/21 09:56:16;;;;;;;0.28;0.28;;;;;;;20.15;37.28;99876.53;5323679;26;34215;-80
2023/03/21 09:58:51;;;;;;;0.50;0.30;;;;;;;19.91;37.87;99883.91;5305628;26;34574;-80
2023/03/21 10:01:32;;;;;;;3.70;2.33;;;;;;;20.15;36.59;99871.16;5323786;26;34144;-80
2023/03/21 10:04:07;;;;;;;0.40;0.40;;;;;;;19.61;37.74;99881.88;5307937;26;33679;-81
2023/03/21 10:06:44;;;;;;;0.45;0.45;;;;;;;20.03;36.78;99869.47;5286035;26;33618;-80
2023/03/21 10:09:21;;;;;;;0.47;0.30;;;;;;;20.30;34.91;99862.84;5303115;26;34075;-80
2023/03/21 10:11:55;;;;;;;0.90;0.90;;;;;;;20.21;35.96;99867.12;5300533;26;32280;-81
2023/03/21 10:14:46;;;;;;;0.37;0.35;;;;;;;20.23;36.18;99867.88;5302635;26;34131;-80
2023/03/21 10:17:18;;;;;;;0.75;0.43;;;;;;;20.24;36.60;99863.34;5319492;26;33895;-80
2023/03/21 10:19:47;;;;;;;0.40;0.25;;;;;;;20.43;33.98;99863.53;5301396;26;33844;-82
2023/03/21 10:22:19;;;;;;;0.30;0.20;;;;;;;20.42;35.00;99851.09;5302571;26;33782;-82
2023/03/21 10:24:58;;;;;;;0.10;0.10;;;;;;;20.30;33.33;99847.59;5320395;26;33848;-82
2023/03/21 10:27:27;;;;;;;0.20;0.20;;;;;;;20.62;33.54;99841.41;5319649;26;33710;-81
2023/03/21 10:29:56;;;;;;;0.35;0.35;;;;;;;20.84;33.12;99856.50;5301655;26;32706;-81
2023/03/21 10:32:34;;;;;;;0.10;0.10;;;;;;;20.56;33.62;99850.81;5302085;26;33799;-81
2023/03/21 10:35:11;;;;;;;0.20;0.20;;;;;;;20.34;34.51;99851.72;5299963;26;34698;-81
2023/03/21 10:37:43;;;;;;;1.45;0.55;;;;;;;20.83;33.24;99850.28;5320341;26;34048;-80
2023/03/21 10:40:20;;;;;;;0.15;0.13;;;;;;;20.96;32.39;99842.03;5320551;26;34343;-80
2023/03/21 10:43:20;;;;;;;0.10;0.00;;;;;;;20.87;33.05;99849.03;5301232;26;32005;-80
2023/03/21 10:45:53;;;;;;;0.85;0.75;;;;;;;21.26;32.47;99840.34;5320497;26;33927;-80
2023/03/21 10:48:23;;;;;;;0.50;0.50;;;;;;;21.23;32.57;99841.50;5319346;26;33396;-80
2023/03/21 10:50:54;;;;;;;0.35;0.20;;;;;;;21.08;33.48;99832.94;5301673;26;34074;-81
2023/03/21 10:53:32;;;;;;;0.22;0.15;;;;;;;21.40;33.10;99842.72;5320837;26;34564;-79
2023/03/21 10:56:03;;;;;;;0.00;0.00;;;;;;;21.29;33.57;99823.97;5302454;26;32875;-81
2023/03/21 10:58:38;;;;;;;0.32;0.30;;;;;;;21.52;32.19;99833.56;5319765;26;34245;-80
2023/03/21 11:01:13;;;;;;;0.20;0.20;;;;;;;21.79;31.61;99830.28;5303196;26;32773;-80
2023/03/21 11:03:45;;;;;;;0.08;0.08;;;;;;;21.91;30.06;99825.59;5303775;26;32480;-80
2023/03/21 11:06:26;;;;;;;0.32;0.32;;;;;;;21.23;31.30;99833.44;5302126;26;33642;-80
2023/03/21 11:08:59;;;;;;;0.00;0.00;;;;;;;21.59;30.58;99826.66;5321415;26;33754;-80
2023/03/21 11:11:39;;;;;;;0.00;0.00;;;;;;;21.52;29.77;99814.78;5321370;26;33680;-80
2023/03/21 11:14:24;;;;;;;0.00;0.00;;;;;;;21.69;30.03;99814.09;5321066;26;33873;-80
2023/03/21 11:17:00;;;;;;;0.40;0.40;;;;;;;21.33;31.01;99810.19;5304036;26;33929;-80
2023/03/21 11:19:34;;;;;;;0.10;0.00;;;;;;;21.82;29.47;99799.56;5320528;26;32961;-80
2023/03/21 11:22:07;;;;;;;5.82;0.40;;;;;;;21.87;30.69;99798.16;5284596;26;33593;-80
2023/03/21 11:24:38;;;;;;;0.70;0.70;;;;;;;22.36;29.94;99803.56;5321520;26;33194;-80
2023/03/21 11:27:13;;;;;;;0.50;0.50;;;;;;;22.06;29.50;99791.09;5321630;26;33679;-81
2023/03/21 11:29:47;;;;;;;0.00;0.00;;;;;;;21.93;30.04;99802.13;5284284;26;33916;-79
2023/03/21 11:32:24;;;;;;;0.40;0.40;;;;;;;21.70;31.43;99797.00;5320557;26;32776;-80
2023/03/21 11:35:08;;;;;;;2.85;0.30;;;;;;;22.02;28.78;99801.28;5283546;26;32506;-79
2023/03/21 11:37:43;;;;;;;0.00;0.00;;;;;;;21.95;27.87;99782.19;5303194;26;32653;-80
2023/03/21 11:40:24;;;;;;;4.20;0.20;;;;;;;21.74;27.60;99786.81;5321022;26;33782;-81
2023/03/21 11:43:27;;;;;;;0.43;0.43;;;;;;;21.51;29.23;99782.66;5301680;26;32839;-81
2023/03/21 11:46:13;;;;;;;2.40;0.68;;;;;;;22.04;28.74;99771.59;5318932;26;33827;-81
2023/03/21 11:48:47;;;;;;;0.08;0.05;;;;;;;22.42;28.25;99781.50;5300509;26;33341;-81
2023/03/21 11:51:48;;;;;;;0.13;0.13;;;;;;;22.18;28.81;99776.56;5285128;26;33421;-81
2023/03/21 11:54:18;;;;;;;0.52;0.52;;;;;;;21.91;30.41;99766.47;5283952;26;33976;-82
2023/03/21 11:56:50;;;;;;;3.40;1.73;;;;;;;21.91;28.90;99761.09;5319397;26;33329;-81
2023/03/21 11:59:39;;;;;;;1.85;0.50;;;;;;;21.56;29.32;99767.00;5319989;26;33737;-81
2023/03/21 12:02:16;;;;;;;0.17;0.17;;;;;;;22.26;26.97;99765.94;5320943;26;34491;-81
2023/03/21 12:05:18;;;;;;;0.20;0.20;;;;;;;22.43;27.75;99756.28;5311235;26;33414;-81
2023/03/21 12:07:57;;;;;;;0.30;0.30;;;;;;;22.60;27.91;99744.81;5319570;26;32602;-82
2023/03/21 12:10:34;;;;;;;0.40;0.40;;;;;;;22.37;28.86;99752.34;5320420;26;34536;-82
2023/03/21 12:13:22;;;;;;;0.30;0.30;;;;;;;22.90;27.49;99753.66;5319139;26;33658;-82
2023/03/21 12:16:13;;;;;;;0.65;0.45;;;;;;;22.97;27.78;99746.69;5300938;26;34270;-82
2023/03/21 12:18:58;;;;;;;0.88;0.22;;;;;;;22.37;28.86;99749.66;5320216;26;33772;-82